sensor_id;sensor_type;location;lat;lon;timestamp;temperature;humidity
14769;DHT22;7476;49.404;11.152;2024-03-08T00:01:46;-1.50;99.90
14769;DHT22;7476;49.404;11.152;2024-03-08T00:04:12;-1.50;99.90
14769;DHT22;7476;49.404;11.152;2024-03-08T00:06:40;-1.50;99.90
14769;DHT22;7476;49.404;11.152;2024-03-08T00:09:07;-1.50;99.90
14769;DHT22;7476;49.404;11.152;2024-03-08T00:11:34;-1.60;99.90
14769;DHT22;7476;49.404;11.152;2024-03-08T00:14:00;-1.80;99.90
14769;DHT22;7476;49.404;11.152;2024-03-08T00:16:27;-1.90;99.90
14769;DHT22;7476;49.404;11.152;2024-03-08T00:18:55;-2.10;99.90
14769;DHT22;7476;49.404;11.152;2024-03-08T00:21:22;-2.30;99.90
14769;DHT22;7476;49.404;11.152;2024-03-08T00:23:48;-2.50;99.90
14769;DHT22;7476;49.404;11.152;2024-03-08T00:26:15;-2.60;99.90
14769;DHT22;7476;49.404;11.152;2024-03-08T00:28:42;-2.70;99.90
14769;DHT22;7476;49.404;11.152;2024-03-08T00:31:08;-2.80;99.90
14769;DHT22;7476;49.404;11.152;2024-03-08T00:33:35;-2.90;99.90
14769;DHT22;7476;49.404;11.152;2024-03-08T00:36:03;-3.00;99.90
14769;DHT22;7476;49.404;11.152;2024-03-08T00:38:30;-3.00;99.90
14769;DHT22;7476;49.404;11.152;2024-03-08T00:40:57;-3.10;99.90
14769;DHT22;7476;49.404;11.152;2024-03-08T00:43:24;-3.20;99.90
14769;DHT22;7476;49.404;11.152;2024-03-08T00:45:51;-3.30;99.90
14769;DHT22;7476;49.404;11.152;2024-03-08T00:48:18;-3.30;99.90
14769;DHT22;7476;49.404;11.152;2024-03-08T00:50:44;-3.30;99.90
14769;DHT22;7476;49.404;11.152;2024-03-08T00:53:13;-3.30;99.90
14769;DHT22;7476;49.404;11.152;2024-03-08T00:55:39;-3.10;99.90
14769;DHT22;7476;49.404;11.152;2024-03-08T00:58:06;-3.30;99.90
14769;DHT22;7476;49.404;11.152;2024-03-08T01:00:34;-3.40;99.90
14769;DHT22;7476;49.404;11.152;2024-03-08T01:03:01;-3.30;99.90
14769;DHT22;7476;49.404;11.152;2024-03-08T01:05:28;-2.70;99.90
14769;DHT22;7476;49.404;11.152;2024-03-08T01:07:55;-2.90;99.90
14769;DHT22;7476;49.404;11.152;2024-03-08T01:10:23;-3.20;99.90
14769;DHT22;7476;49.404;11.152;2024-03-08T01:12:50;-3.30;99.90
14769;DHT22;7476;49.404;11.152;2024-03-08T01:15:16;-3.30;99.90
14769;DHT22;7476;49.404;11.152;2024-03-08T01:17:43;-3.30;99.90
14769;DHT22;7476;49.404;11.152;2024-03-08T01:20:10;-3.10;99.90
14769;DHT22;7476;49.404;11.152;2024-03-08T01:22:37;-3.00;99.90
14769;DHT22;7476;49.404;11.152;2024-03-08T01:25:05;-3.00;99.90
14769;DHT22;7476;49.404;11.152;2024-03-08T01:27:33;-2.80;99.90
14769;DHT22;7476;49.404;11.152;2024-03-08T01:30:00;-2.90;99.90
14769;DHT22;7476;49.404;11.152;2024-03-08T01:32:27;-2.60;99.90
14769;DHT22;7476;49.404;11.152;2024-03-08T01:34:54;-2.70;99.90
14769;DHT22;7476;49.404;11.152;2024-03-08T01:37:20;-2.50;99.90
14769;DHT22;7476;49.404;11.152;2024-03-08T01:39:47;-2.40;99.90
14769;DHT22;7476;49.404;11.152;2024-03-08T01:42:14;-2.40;99.90
14769;DHT22;7476;49.404;11.152;2024-03-08T01:44:44;-2.50;99.90
14769;DHT22;7476;49.404;11.152;2024-03-08T01:47:11;-2.20;99.90
14769;DHT22;7476;49.404;11.152;2024-03-08T01:49:38;-2.30;99.90
14769;DHT22;7476;49.404;11.152;2024-03-08T01:52:05;-2.40;99.90
14769;DHT22;7476;49.404;11.152;2024-03-08T01:54:32;-2.60;99.90
14769;DHT22;7476;49.404;11.152;2024-03-08T01:56:59;-2.90;99.90
14769;DHT22;7476;49.404;11.152;2024-03-08T01:59:25;-3.10;99.90
14769;DHT22;7476;49.404;11.152;2024-03-08T02:01:55;-3.20;99.90
14769;DHT22;7476;49.404;11.152;2024-03-08T02:04:24;-3.20;99.90
14769;DHT22;7476;49.404;11.152;2024-03-08T02:06:51;-3.10;99.90
14769;DHT22;7476;49.404;11.152;2024-03-08T02:09:18;-3.10;99.90
14769;DHT22;7476;49.404;11.152;2024-03-08T02:11:45;-3.00;99.90
14769;DHT22;7476;49.404;11.152;2024-03-08T02:14:12;-2.90;99.90
14769;DHT22;7476;49.404;11.152;2024-03-08T02:16:39;-2.90;99.90
14769;DHT22;7476;49.404;11.152;2024-03-08T02:19:07;-2.60;99.90
14769;DHT22;7476;49.404;11.152;2024-03-08T02:21:36;-2.70;99.90
14769;DHT22;7476;49.404;11.152;2024-03-08T02:24:04;-2.70;99.90
14769;DHT22;7476;49.404;11.152;2024-03-08T02:26:30;-2.80;99.90
14769;DHT22;7476;49.404;11.152;2024-03-08T02:28:57;-2.70;99.90
14769;DHT22;7476;49.404;11.152;2024-03-08T02:31:24;-2.90;99.90
14769;DHT22;7476;49.404;11.152;2024-03-08T02:33:50;-2.80;99.90
14769;DHT22;7476;49.404;11.152;2024-03-08T02:36:17;-3.00;99.90
14769;DHT22;7476;49.404;11.152;2024-03-08T02:38:45;-3.10;99.90
14769;DHT22;7476;49.404;11.152;2024-03-08T02:41:11;-3.10;99.90
14769;DHT22;7476;49.404;11.152;2024-03-08T02:43:38;-3.20;99.90
14769;DHT22;7476;49.404;11.152;2024-03-08T02:46:05;-3.00;99.90
14769;DHT22;7476;49.404;11.152;2024-03-08T02:48:31;-3.10;99.90
14769;DHT22;7476;49.404;11.152;2024-03-08T02:50:58;-3.30;99.90
14769;DHT22;7476;49.404;11.152;2024-03-08T02:53:25;-3.10;99.90
14769;DHT22;7476;49.404;11.152;2024-03-08T02:55:52;-3.10;99.90
14769;DHT22;7476;49.404;11.152;2024-03-08T02:58:20;-3.40;99.90
14769;DHT22;7476;49.404;11.152;2024-03-08T03:00:47;-3.50;99.90
14769;DHT22;7476;49.404;11.152;2024-03-08T03:03:14;-3.50;99.90
14769;DHT22;7476;49.404;11.152;2024-03-08T03:05:40;-3.60;99.90
14769;DHT22;7476;49.404;11.152;2024-03-08T03:08:07;-3.70;99.90
14769;DHT22;7476;49.404;11.152;2024-03-08T03:10:35;-3.60;99.90
14769;DHT22;7476;49.404;11.152;2024-03-08T03:13:03;-3.30;99.90
14769;DHT22;7476;49.404;11.152;2024-03-08T03:15:30;-3.10;99.90
14769;DHT22;7476;49.404;11.152;2024-03-08T03:17:59;-2.90;99.90
14769;DHT22;7476;49.404;11.152;2024-03-08T03:20:25;-2.90;99.90
14769;DHT22;7476;49.404;11.152;2024-03-08T03:22:57;-3.00;99.90
14769;DHT22;7476;49.404;11.152;2024-03-08T03:25:26;-3.00;99.90
14769;DHT22;7476;49.404;11.152;2024-03-08T03:27:58;-2.80;99.90
14769;DHT22;7476;49.404;11.152;2024-03-08T03:30:26;-2.50;99.90
14769;DHT22;7476;49.404;11.152;2024-03-08T03:32:58;-2.40;99.90
14769;DHT22;7476;49.404;11.152;2024-03-08T03:35:26;-2.60;99.90
14769;DHT22;7476;49.404;11.152;2024-03-08T03:37:53;-2.80;99.90
14769;DHT22;7476;49.404;11.152;2024-03-08T03:40:31;-2.90;99.90
14769;DHT22;7476;49.404;11.152;2024-03-08T03:42:57;-2.90;99.90
14769;DHT22;7476;49.404;11.152;2024-03-08T03:45:26;-2.90;99.90
14769;DHT22;7476;49.404;11.152;2024-03-08T03:47:52;-2.80;99.90
14769;DHT22;7476;49.404;11.152;2024-03-08T03:50:19;-2.70;99.90
14769;DHT22;7476;49.404;11.152;2024-03-08T03:52:46;-2.40;99.90
14769;DHT22;7476;49.404;11.152;2024-03-08T03:55:13;-2.40;99.90
14769;DHT22;7476;49.404;11.152;2024-03-08T03:57:40;-2.10;99.90
14769;DHT22;7476;49.404;11.152;2024-03-08T04:00:07;-2.20;99.90
14769;DHT22;7476;49.404;11.152;2024-03-08T04:02:37;-1.70;99.90
14769;DHT22;7476;49.404;11.152;2024-03-08T04:05:05;-2.00;99.90
14769;DHT22;7476;49.404;11.152;2024-03-08T04:07:32;-2.10;99.90
14769;DHT22;7476;49.404;11.152;2024-03-08T04:09:59;-2.10;99.90
14769;DHT22;7476;49.404;11.152;2024-03-08T04:12:26;-1.80;99.90
14769;DHT22;7476;49.404;11.152;2024-03-08T04:14:54;-1.50;99.90
14769;DHT22;7476;49.404;11.152;2024-03-08T04:17:21;-1.20;99.90
14769;DHT22;7476;49.404;11.152;2024-03-08T04:19:50;-1.30;99.90
14769;DHT22;7476;49.404;11.152;2024-03-08T04:22:17;-1.30;99.90
14769;DHT22;7476;49.404;11.152;2024-03-08T04:24:44;-1.70;99.90
14769;DHT22;7476;49.404;11.152;2024-03-08T04:27:11;-2.10;99.90
14769;DHT22;7476;49.404;11.152;2024-03-08T04:29:37;-2.30;99.90
14769;DHT22;7476;49.404;11.152;2024-03-08T04:32:05;-2.60;99.90
14769;DHT22;7476;49.404;11.152;2024-03-08T04:34:32;-2.70;99.90
14769;DHT22;7476;49.404;11.152;2024-03-08T04:37:00;-2.70;99.90
14769;DHT22;7476;49.404;11.152;2024-03-08T04:39:27;-2.30;99.90
14769;DHT22;7476;49.404;11.152;2024-03-08T04:41:54;-2.20;99.90
14769;DHT22;7476;49.404;11.152;2024-03-08T04:44:22;-2.50;99.90
14769;DHT22;7476;49.404;11.152;2024-03-08T04:46:49;-2.60;99.90
14769;DHT22;7476;49.404;11.152;2024-03-08T04:49:16;-2.60;99.90
14769;DHT22;7476;49.404;11.152;2024-03-08T04:51:43;-2.50;99.90
14769;DHT22;7476;49.404;11.152;2024-03-08T04:54:12;-2.60;99.90
14769;DHT22;7476;49.404;11.152;2024-03-08T04:56:39;-2.80;99.90
14769;DHT22;7476;49.404;11.152;2024-03-08T04:59:06;-2.70;99.90
14769;DHT22;7476;49.404;11.152;2024-03-08T05:01:34;-2.90;99.90
14769;DHT22;7476;49.404;11.152;2024-03-08T05:04:03;-2.90;99.90
14769;DHT22;7476;49.404;11.152;2024-03-08T05:06:31;-2.80;99.90
14769;DHT22;7476;49.404;11.152;2024-03-08T05:08:58;-2.80;99.90
14769;DHT22;7476;49.404;11.152;2024-03-08T05:11:26;-2.30;99.90
14769;DHT22;7476;49.404;11.152;2024-03-08T05:13:53;-2.30;99.90
14769;DHT22;7476;49.404;11.152;2024-03-08T05:16:21;-2.50;99.90
14769;DHT22;7476;49.404;11.152;2024-03-08T05:18:48;-2.70;99.90
14769;DHT22;7476;49.404;11.152;2024-03-08T05:21:15;-2.20;99.90
14769;DHT22;7476;49.404;11.152;2024-03-08T05:23:45;-1.80;99.90
14769;DHT22;7476;49.404;11.152;2024-03-08T05:26:12;-1.90;99.90
14769;DHT22;7476;49.404;11.152;2024-03-08T05:28:40;-1.90;99.90
14769;DHT22;7476;49.404;11.152;2024-03-08T05:31:07;-2.10;99.90
14769;DHT22;7476;49.404;11.152;2024-03-08T05:33:34;-2.30;99.90
14769;DHT22;7476;49.404;11.152;2024-03-08T05:36:00;-2.30;99.90
14769;DHT22;7476;49.404;11.152;2024-03-08T05:38:27;-2.60;99.90
14769;DHT22;7476;49.404;11.152;2024-03-08T05:40:54;-2.90;99.90
14769;DHT22;7476;49.404;11.152;2024-03-08T05:43:21;-2.80;99.90
14769;DHT22;7476;49.404;11.152;2024-03-08T05:45:49;-2.80;99.90
14769;DHT22;7476;49.404;11.152;2024-03-08T05:48:16;-3.00;99.90
14769;DHT22;7476;49.404;11.152;2024-03-08T05:50:44;-3.10;99.90
14769;DHT22;7476;49.404;11.152;2024-03-08T05:53:10;-3.20;99.90
14769;DHT22;7476;49.404;11.152;2024-03-08T05:55:37;-3.40;99.90
14769;DHT22;7476;49.404;11.152;2024-03-08T05:58:04;-3.40;99.90
14769;DHT22;7476;49.404;11.152;2024-03-08T06:00:33;-3.40;99.90
14769;DHT22;7476;49.404;11.152;2024-03-08T06:03:03;-3.30;99.90
14769;DHT22;7476;49.404;11.152;2024-03-08T06:05:29;-3.30;99.90
14769;DHT22;7476;49.404;11.152;2024-03-08T06:07:56;-3.30;99.90
14769;DHT22;7476;49.404;11.152;2024-03-08T06:10:23;-3.20;99.90
14769;DHT22;7476;49.404;11.152;2024-03-08T06:12:49;-3.10;99.90
14769;DHT22;7476;49.404;11.152;2024-03-08T06:15:17;-3.00;99.90
14769;DHT22;7476;49.404;11.152;2024-03-08T06:17:46;-2.60;99.90
14769;DHT22;7476;49.404;11.152;2024-03-08T06:20:14;-2.40;99.90
14769;DHT22;7476;49.404;11.152;2024-03-08T06:22:42;-1.80;99.90
14769;DHT22;7476;49.404;11.152;2024-03-08T06:25:10;-1.80;99.90
14769;DHT22;7476;49.404;11.152;2024-03-08T06:27:39;-1.70;99.90
14769;DHT22;7476;49.404;11.152;2024-03-08T06:30:07;-1.50;99.90
14769;DHT22;7476;49.404;11.152;2024-03-08T06:32:35;-1.50;99.90
14769;DHT22;7476;49.404;11.152;2024-03-08T06:35:02;-1.40;99.90
14769;DHT22;7476;49.404;11.152;2024-03-08T06:37:33;-1.20;99.90
14769;DHT22;7476;49.404;11.152;2024-03-08T06:39:59;-0.70;99.90
14769;DHT22;7476;49.404;11.152;2024-03-08T06:42:26;-0.40;99.90
14769;DHT22;7476;49.404;11.152;2024-03-08T06:44:53;-0.10;99.90
14769;DHT22;7476;49.404;11.152;2024-03-08T06:47:21;0.20;99.90
14769;DHT22;7476;49.404;11.152;2024-03-08T06:49:51;0.60;99.90
14769;DHT22;7476;49.404;11.152;2024-03-08T06:52:17;0.90;99.90
14769;DHT22;7476;49.404;11.152;2024-03-08T06:54:45;0.90;99.90
14769;DHT22;7476;49.404;11.152;2024-03-08T06:57:12;1.10;99.90
14769;DHT22;7476;49.404;11.152;2024-03-08T06:59:39;1.30;99.90
14769;DHT22;7476;49.404;11.152;2024-03-08T07:02:06;1.50;99.90
14769;DHT22;7476;49.404;11.152;2024-03-08T07:04:34;1.70;99.90
14769;DHT22;7476;49.404;11.152;2024-03-08T07:07:03;1.80;99.90
14769;DHT22;7476;49.404;11.152;2024-03-08T07:09:30;1.90;99.90
14769;DHT22;7476;49.404;11.152;2024-03-08T07:11:59;2.00;99.90
14769;DHT22;7476;49.404;11.152;2024-03-08T07:14:27;2.00;90.10
14769;DHT22;7476;49.404;11.152;2024-03-08T07:16:54;2.00;90.90
14769;DHT22;7476;49.404;11.152;2024-03-08T07:19:20;2.10;99.90
14769;DHT22;7476;49.404;11.152;2024-03-08T07:21:48;2.40;66.10
14769;DHT22;7476;49.404;11.152;2024-03-08T07:24:14;2.50;1.00
14769;DHT22;7476;49.404;11.152;2024-03-08T07:27:06;2.70;1.00
14769;DHT22;7476;49.404;11.152;2024-03-08T07:29:32;2.80;1.00
14769;DHT22;7476;49.404;11.152;2024-03-08T07:31:59;2.90;1.00
14769;DHT22;7476;49.404;11.152;2024-03-08T07:34:38;3.10;1.00
14769;DHT22;7476;49.404;11.152;2024-03-08T07:37:05;3.30;1.00
14769;DHT22;7476;49.404;11.152;2024-03-08T07:39:36;3.60;1.00
14769;DHT22;7476;49.404;11.152;2024-03-08T07:42:03;3.60;1.00
14769;DHT22;7476;49.404;11.152;2024-03-08T07:44:31;3.70;1.00
14769;DHT22;7476;49.404;11.152;2024-03-08T07:46:58;3.90;1.00
14769;DHT22;7476;49.404;11.152;2024-03-08T07:49:25;3.90;1.00
14769;DHT22;7476;49.404;11.152;2024-03-08T07:51:52;4.10;1.00
14769;DHT22;7476;49.404;11.152;2024-03-08T07:54:18;4.30;1.00
14769;DHT22;7476;49.404;11.152;2024-03-08T07:56:45;4.40;1.00
14769;DHT22;7476;49.404;11.152;2024-03-08T07:59:12;4.40;1.00
14769;DHT22;7476;49.404;11.152;2024-03-08T08:01:40;4.70;1.00
14769;DHT22;7476;49.404;11.152;2024-03-08T08:04:07;4.90;1.00
14769;DHT22;7476;49.404;11.152;2024-03-08T08:06:37;5.10;1.00
14769;DHT22;7476;49.404;11.152;2024-03-08T08:09:06;5.00;99.90
14769;DHT22;7476;49.404;11.152;2024-03-08T08:11:35;5.00;1.00
14769;DHT22;7476;49.404;11.152;2024-03-08T08:14:02;5.20;99.90
14769;DHT22;7476;49.404;11.152;2024-03-08T08:16:28;5.40;99.90
14769;DHT22;7476;49.404;11.152;2024-03-08T08:18:56;5.30;8.70
14769;DHT22;7476;49.404;11.152;2024-03-08T08:21:23;5.40;99.90
14769;DHT22;7476;49.404;11.152;2024-03-08T08:23:51;5.90;36.40
14769;DHT22;7476;49.404;11.152;2024-03-08T08:26:18;6.10;99.90
14769;DHT22;7476;49.404;11.152;2024-03-08T08:28:44;5.90;1.00
14769;DHT22;7476;49.404;11.152;2024-03-08T08:31:11;6.00;99.90
14769;DHT22;7476;49.404;11.152;2024-03-08T08:33:38;6.00;1.00
14769;DHT22;7476;49.404;11.152;2024-03-08T08:36:07;6.10;1.00
14769;DHT22;7476;49.404;11.152;2024-03-08T08:38:35;6.20;36.40
14769;DHT22;7476;49.404;11.152;2024-03-08T08:41:02;6.40;1.00
14769;DHT22;7476;49.404;11.152;2024-03-08T08:43:28;6.50;1.00
14769;DHT22;7476;49.404;11.152;2024-03-08T08:45:55;6.50;1.00
14769;DHT22;7476;49.404;11.152;2024-03-08T08:48:22;6.60;99.90
14769;DHT22;7476;49.404;11.152;2024-03-08T08:50:50;6.60;1.00
14769;DHT22;7476;49.404;11.152;2024-03-08T08:53:19;6.90;99.90
14769;DHT22;7476;49.404;11.152;2024-03-08T08:55:45;6.90;1.00
14769;DHT22;7476;49.404;11.152;2024-03-08T08:58:12;6.90;1.00
14769;DHT22;7476;49.404;11.152;2024-03-08T09:00:39;6.90;99.90
14769;DHT22;7476;49.404;11.152;2024-03-08T09:03:05;6.80;1.00
14769;DHT22;7476;49.404;11.152;2024-03-08T09:05:33;7.30;99.90
14769;DHT22;7476;49.404;11.152;2024-03-08T09:08:00;7.40;99.90
14769;DHT22;7476;49.404;11.152;2024-03-08T09:10:29;7.50;1.00
14769;DHT22;7476;49.404;11.152;2024-03-08T09:12:56;8.00;99.90
14769;DHT22;7476;49.404;11.152;2024-03-08T09:15:23;7.90;26.00
14769;DHT22;7476;49.404;11.152;2024-03-08T09:17:53;7.90;7.90
14769;DHT22;7476;49.404;11.152;2024-03-08T09:20:20;7.70;49.20
14769;DHT22;7476;49.404;11.152;2024-03-08T09:22:47;7.60;1.00
14769;DHT22;7476;49.404;11.152;2024-03-08T09:25:13;7.50;99.90
14769;DHT22;7476;49.404;11.152;2024-03-08T09:27:41;7.40;1.00
14769;DHT22;7476;49.404;11.152;2024-03-08T09:30:09;7.80;1.00
14769;DHT22;7476;49.404;11.152;2024-03-08T09:32:38;8.20;1.00
14769;DHT22;7476;49.404;11.152;2024-03-08T09:35:05;8.30;1.00
14769;DHT22;7476;49.404;11.152;2024-03-08T09:37:32;8.00;1.00
14769;DHT22;7476;49.404;11.152;2024-03-08T09:40:00;8.30;1.00
14769;DHT22;7476;49.404;11.152;2024-03-08T09:42:29;8.30;1.00
14769;DHT22;7476;49.404;11.152;2024-03-08T09:44:58;8.30;1.00
14769;DHT22;7476;49.404;11.152;2024-03-08T09:47:25;8.30;1.00
14769;DHT22;7476;49.404;11.152;2024-03-08T09:49:59;7.80;1.00
14769;DHT22;7476;49.404;11.152;2024-03-08T09:52:26;7.40;1.00
14769;DHT22;7476;49.404;11.152;2024-03-08T09:54:56;8.00;1.00
14769;DHT22;7476;49.404;11.152;2024-03-08T09:57:23;8.30;1.00
14769;DHT22;7476;49.404;11.152;2024-03-08T09:59:50;8.50;1.00
14769;DHT22;7476;49.404;11.152;2024-03-08T10:02:18;7.90;1.00
14769;DHT22;7476;49.404;11.152;2024-03-08T10:04:46;8.20;1.00
14769;DHT22;7476;49.404;11.152;2024-03-08T10:07:13;8.30;1.00
14769;DHT22;7476;49.404;11.152;2024-03-08T10:09:40;8.40;1.00
14769;DHT22;7476;49.404;11.152;2024-03-08T10:12:08;8.50;1.00
14769;DHT22;7476;49.404;11.152;2024-03-08T10:14:39;8.90;1.00
14769;DHT22;7476;49.404;11.152;2024-03-08T10:17:06;9.00;1.00
14769;DHT22;7476;49.404;11.152;2024-03-08T10:19:34;8.40;1.00
14769;DHT22;7476;49.404;11.152;2024-03-08T10:22:01;8.70;1.00
14769;DHT22;7476;49.404;11.152;2024-03-08T10:24:30;8.80;1.00
14769;DHT22;7476;49.404;11.152;2024-03-08T10:26:59;8.90;1.00
14769;DHT22;7476;49.404;11.152;2024-03-08T10:29:30;8.80;1.00
14769;DHT22;7476;49.404;11.152;2024-03-08T10:31:57;8.70;1.00
14769;DHT22;7476;49.404;11.152;2024-03-08T10:34:23;8.60;1.00
14769;DHT22;7476;49.404;11.152;2024-03-08T10:36:51;8.70;99.90
14769;DHT22;7476;49.404;11.152;2024-03-08T10:39:21;9.00;1.00
14769;DHT22;7476;49.404;11.152;2024-03-08T10:41:55;9.30;99.90
14769;DHT22;7476;49.404;11.152;2024-03-08T10:44:37;9.00;99.90
14769;DHT22;7476;49.404;11.152;2024-03-08T10:47:12;9.30;99.90
14769;DHT22;7476;49.404;11.152;2024-03-08T10:49:49;9.70;99.90
14769;DHT22;7476;49.404;11.152;2024-03-08T10:52:19;9.70;99.90
14769;DHT22;7476;49.404;11.152;2024-03-08T10:54:47;9.60;99.90
14769;DHT22;7476;49.404;11.152;2024-03-08T10:57:17;10.20;99.90
14769;DHT22;7476;49.404;11.152;2024-03-08T10:59:45;10.30;99.90
14769;DHT22;7476;49.404;11.152;2024-03-08T11:02:12;10.40;99.90
14769;DHT22;7476;49.404;11.152;2024-03-08T11:04:39;10.50;99.90
14769;DHT22;7476;49.404;11.152;2024-03-08T11:07:12;10.80;99.90
14769;DHT22;7476;49.404;11.152;2024-03-08T11:09:44;11.30;99.90
14769;DHT22;7476;49.404;11.152;2024-03-08T11:12:22;11.10;99.90
14769;DHT22;7476;49.404;11.152;2024-03-08T11:14:51;10.80;99.90
14769;DHT22;7476;49.404;11.152;2024-03-08T11:17:21;11.40;99.90
14769;DHT22;7476;49.404;11.152;2024-03-08T11:19:48;11.10;99.90
14769;DHT22;7476;49.404;11.152;2024-03-08T11:22:22;11.50;99.90
14769;DHT22;7476;49.404;11.152;2024-03-08T11:24:53;11.10;99.90
14769;DHT22;7476;49.404;11.152;2024-03-08T11:27:29;11.10;99.90
14769;DHT22;7476;49.404;11.152;2024-03-08T11:30:03;11.70;99.90
14769;DHT22;7476;49.404;11.152;2024-03-08T11:32:37;12.20;99.80
14769;DHT22;7476;49.404;11.152;2024-03-08T11:35:07;12.10;86.80
14769;DHT22;7476;49.404;11.152;2024-03-08T11:37:34;12.40;82.60
14769;DHT22;7476;49.404;11.152;2024-03-08T11:40:12;12.70;51.60
14769;DHT22;7476;49.404;11.152;2024-03-08T11:42:45;13.20;50.40
14769;DHT22;7476;49.404;11.152;2024-03-08T11:45:13;12.20;46.20
14769;DHT22;7476;49.404;11.152;2024-03-08T11:47:42;12.50;31.70
14769;DHT22;7476;49.404;11.152;2024-03-08T11:50:11;11.70;28.50
14769;DHT22;7476;49.404;11.152;2024-03-08T11:52:38;11.80;37.90
14769;DHT22;7476;49.404;11.152;2024-03-08T11:55:07;12.30;29.90
14769;DHT22;7476;49.404;11.152;2024-03-08T11:57:34;12.50;26.20
14769;DHT22;7476;49.404;11.152;2024-03-08T12:00:00;12.80;31.10
14769;DHT22;7476;49.404;11.152;2024-03-08T12:02:32;12.50;23.50
14769;DHT22;7476;49.404;11.152;2024-03-08T12:05:02;13.00;22.50
14769;DHT22;7476;49.404;11.152;2024-03-08T12:07:29;12.10;3.90
14769;DHT22;7476;49.404;11.152;2024-03-08T12:10:18;12.60;12.20
14769;DHT22;7476;49.404;11.152;2024-03-08T12:12:47;13.80;5.80
14769;DHT22;7476;49.404;11.152;2024-03-08T12:15:16;13.60;1.00
14769;DHT22;7476;49.404;11.152;2024-03-08T12:17:43;14.00;1.00
14769;DHT22;7476;49.404;11.152;2024-03-08T12:20:19;13.10;1.00
14769;DHT22;7476;49.404;11.152;2024-03-08T12:22:47;13.60;1.00
14769;DHT22;7476;49.404;11.152;2024-03-08T12:25:14;13.40;1.00
14769;DHT22;7476;49.404;11.152;2024-03-08T12:27:43;13.10;1.00
14769;DHT22;7476;49.404;11.152;2024-03-08T12:30:19;12.90;1.00
14769;DHT22;7476;49.404;11.152;2024-03-08T12:32:51;14.00;1.00
14769;DHT22;7476;49.404;11.152;2024-03-08T12:35:20;15.30;1.00
14769;DHT22;7476;49.404;11.152;2024-03-08T12:37:48;15.60;1.00
14769;DHT22;7476;49.404;11.152;2024-03-08T12:40:17;14.80;1.00
14769;DHT22;7476;49.404;11.152;2024-03-08T12:42:45;15.80;1.00
14769;DHT22;7476;49.404;11.152;2024-03-08T12:45:14;14.90;1.00
14769;DHT22;7476;49.404;11.152;2024-03-08T12:47:40;15.10;1.00
14769;DHT22;7476;49.404;11.152;2024-03-08T12:50:09;15.20;1.00
14769;DHT22;7476;49.404;11.152;2024-03-08T12:52:36;15.30;1.00
14769;DHT22;7476;49.404;11.152;2024-03-08T12:55:03;15.30;1.00
14769;DHT22;7476;49.404;11.152;2024-03-08T12:57:32;15.30;1.00
14769;DHT22;7476;49.404;11.152;2024-03-08T13:00:01;15.90;1.00
14769;DHT22;7476;49.404;11.152;2024-03-08T13:02:29;16.00;1.00
14769;DHT22;7476;49.404;11.152;2024-03-08T13:04:56;16.50;1.00
14769;DHT22;7476;49.404;11.152;2024-03-08T13:07:24;17.10;1.00
14769;DHT22;7476;49.404;11.152;2024-03-08T13:09:52;15.60;1.00
14769;DHT22;7476;49.404;11.152;2024-03-08T13:12:19;14.70;1.00
14769;DHT22;7476;49.404;11.152;2024-03-08T13:14:46;14.10;1.00
14769;DHT22;7476;49.404;11.152;2024-03-08T13:17:15;15.40;1.00
14769;DHT22;7476;49.404;11.152;2024-03-08T13:19:43;15.80;1.00
14769;DHT22;7476;49.404;11.152;2024-03-08T13:22:10;16.60;1.00
14769;DHT22;7476;49.404;11.152;2024-03-08T13:24:38;17.50;1.00
14769;DHT22;7476;49.404;11.152;2024-03-08T13:27:06;18.00;1.00
14769;DHT22;7476;49.404;11.152;2024-03-08T13:29:45;16.50;1.00
14769;DHT22;7476;49.404;11.152;2024-03-08T13:32:12;16.40;1.00
14769;DHT22;7476;49.404;11.152;2024-03-08T13:34:40;16.80;1.00
14769;DHT22;7476;49.404;11.152;2024-03-08T13:37:07;18.00;1.00
14769;DHT22;7476;49.404;11.152;2024-03-08T13:39:35;17.40;1.00
14769;DHT22;7476;49.404;11.152;2024-03-08T13:42:06;16.90;1.00
14769;DHT22;7476;49.404;11.152;2024-03-08T13:44:35;14.90;1.00
14769;DHT22;7476;49.404;11.152;2024-03-08T13:47:01;15.70;1.00
14769;DHT22;7476;49.404;11.152;2024-03-08T13:49:30;15.60;1.00
14769;DHT22;7476;49.404;11.152;2024-03-08T13:51:58;14.80;1.00
14769;DHT22;7476;49.404;11.152;2024-03-08T13:54:25;15.80;1.00
14769;DHT22;7476;49.404;11.152;2024-03-08T13:56:55;16.70;1.00
14769;DHT22;7476;49.404;11.152;2024-03-08T13:59:22;17.80;1.00
14769;DHT22;7476;49.404;11.152;2024-03-08T14:01:49;17.10;1.00
14769;DHT22;7476;49.404;11.152;2024-03-08T14:04:16;15.00;1.00
14769;DHT22;7476;49.404;11.152;2024-03-08T14:06:43;14.80;1.00
14769;DHT22;7476;49.404;11.152;2024-03-08T14:09:12;15.20;1.00
14769;DHT22;7476;49.404;11.152;2024-03-08T14:11:42;15.20;1.00
14769;DHT22;7476;49.404;11.152;2024-03-08T14:14:10;16.50;1.00
14769;DHT22;7476;49.404;11.152;2024-03-08T14:16:37;16.10;1.00
14769;DHT22;7476;49.404;11.152;2024-03-08T14:19:04;16.50;1.00
14769;DHT22;7476;49.404;11.152;2024-03-08T14:21:32;17.60;1.00
14769;DHT22;7476;49.404;11.152;2024-03-08T14:23:58;18.40;1.00
14769;DHT22;7476;49.404;11.152;2024-03-08T14:26:26;17.60;1.00
14769;DHT22;7476;49.404;11.152;2024-03-08T14:28:53;17.90;1.00
14769;DHT22;7476;49.404;11.152;2024-03-08T14:31:20;18.70;1.00
14769;DHT22;7476;49.404;11.152;2024-03-08T14:33:50;18.00;1.00
14769;DHT22;7476;49.404;11.152;2024-03-08T14:36:18;16.30;1.00
14769;DHT22;7476;49.404;11.152;2024-03-08T14:38:45;18.00;1.00
14769;DHT22;7476;49.404;11.152;2024-03-08T14:41:12;17.40;1.00
14769;DHT22;7476;49.404;11.152;2024-03-08T14:43:42;17.60;1.00
14769;DHT22;7476;49.404;11.152;2024-03-08T14:46:10;17.80;1.00
14769;DHT22;7476;49.404;11.152;2024-03-08T14:48:39;19.00;1.00
14769;DHT22;7476;49.404;11.152;2024-03-08T14:51:06;19.70;1.00
14769;DHT22;7476;49.404;11.152;2024-03-08T14:53:36;19.20;1.00
14769;DHT22;7476;49.404;11.152;2024-03-08T14:56:06;19.10;1.00
14769;DHT22;7476;49.404;11.152;2024-03-08T14:58:33;18.10;1.00
14769;DHT22;7476;49.404;11.152;2024-03-08T15:01:01;16.00;1.00
14769;DHT22;7476;49.404;11.152;2024-03-08T15:03:28;15.80;1.00
14769;DHT22;7476;49.404;11.152;2024-03-08T15:05:55;16.20;1.00
14769;DHT22;7476;49.404;11.152;2024-03-08T15:08:22;16.60;1.00
14769;DHT22;7476;49.404;11.152;2024-03-08T15:10:50;16.20;1.00
14769;DHT22;7476;49.404;11.152;2024-03-08T15:13:19;15.40;1.00
14769;DHT22;7476;49.404;11.152;2024-03-08T15:15:48;14.90;1.00
14769;DHT22;7476;49.404;11.152;2024-03-08T15:18:23;16.20;1.00
14769;DHT22;7476;49.404;11.152;2024-03-08T15:20:53;16.10;1.00
14769;DHT22;7476;49.404;11.152;2024-03-08T15:23:20;15.40;1.00
14769;DHT22;7476;49.404;11.152;2024-03-08T15:25:48;15.30;1.00
14769;DHT22;7476;49.404;11.152;2024-03-08T15:28:15;15.70;1.00
14769;DHT22;7476;49.404;11.152;2024-03-08T15:30:44;15.80;1.00
14769;DHT22;7476;49.404;11.152;2024-03-08T15:33:12;14.70;1.00
14769;DHT22;7476;49.404;11.152;2024-03-08T15:35:42;16.00;1.00
14769;DHT22;7476;49.404;11.152;2024-03-08T15:38:12;15.40;1.00
14769;DHT22;7476;49.404;11.152;2024-03-08T15:40:40;15.60;1.00
14769;DHT22;7476;49.404;11.152;2024-03-08T15:43:07;13.30;1.00
14769;DHT22;7476;49.404;11.152;2024-03-08T15:45:34;13.50;1.00